Terminal Aerodrome Forecast
Issued by NWS

Home | Current Version | Previous Version | Text Only | Print | Product List | Glossary On
Versions: 1 2 3 4 5 6 7 8 9 10 11 12 13 14 15 16 17 18 19 20 21
000
FTUS44 KLZK 312337
TAFHOT
TAF
KHOT 312337Z 0100/0124 VRB04KT P6SM VCSH SCT050 BKN250
     FM010500 VRB03KT P6SM VCSH FEW012 BKN050 OVC250
     FM010900 VRB03KT 6SM BR VCSH SCT020 BKN040 OVC100
      TEMPO 0109/0112 4SM BR BKN020 OVC040
     FM011400 VRB05KT P6SM VCSH BKN020 OVC050=

USA.gov is the U.S. government's official web portal to all federal, state and local government web resources and services.